Presho, South Dakota
Current Conditions -  °F | °C
As of 12:53 PM on Saturday 20 Dec 2014 (Local Time) from KPIR Reporting Station
Haze Haze  
Wind Chill: 19°   Ceiling: 9000
Heat Index: 26°   Visibility: 6mi
Dew Point: 22°   Wind: 6mph
Humidity: 84%   Direction: 130°SE
Pressure: 29.92"   Gusts: NA
Location:  43.91°N, 100.06°W
Report Text: KPIR 201853Z AUTO 13005KT 6SM BR OVC090 M03/M06 A2992 RMK AO2 SLP157 T10331056
Loading
Personal Weather Stations






























Interactive Weather Map New forecast layout! Learn more

10-Day Weather Forecast

Advertisements
Track Severe Weather on mobile